sensor_id;sensor_type;location;lat;lon;timestamp;temperature;humidity
3053;DHT22;1536;51.098;6.414;2022-08-03T00:02:11;21.60;99.90
3053;DHT22;1536;51.098;6.414;2022-08-03T00:04:39;21.60;99.90
3053;DHT22;1536;51.098;6.414;2022-08-03T00:07:06;21.60;99.90
3053;DHT22;1536;51.098;6.414;2022-08-03T00:09:33;21.60;99.90
3053;DHT22;1536;51.098;6.414;2022-08-03T00:12:00;21.50;99.90
3053;DHT22;1536;51.098;6.414;2022-08-03T00:14:26;21.50;99.90
3053;DHT22;1536;51.098;6.414;2022-08-03T00:16:53;21.50;99.90
3053;DHT22;1536;51.098;6.414;2022-08-03T00:19:20;21.50;99.90
3053;DHT22;1536;51.098;6.414;2022-08-03T00:21:48;21.60;99.90
3053;DHT22;1536;51.098;6.414;2022-08-03T00:24:15;21.60;99.90
3053;DHT22;1536;51.098;6.414;2022-08-03T00:26:41;21.60;99.90
3053;DHT22;1536;51.098;6.414;2022-08-03T00:29:08;21.70;99.90
3053;DHT22;1536;51.098;6.414;2022-08-03T00:31:35;21.60;99.90
3053;DHT22;1536;51.098;6.414;2022-08-03T00:34:02;21.70;99.90
3053;DHT22;1536;51.098;6.414;2022-08-03T00:36:29;21.70;99.90
3053;DHT22;1536;51.098;6.414;2022-08-03T00:38:57;21.70;99.90
3053;DHT22;1536;51.098;6.414;2022-08-03T00:41:24;21.70;99.90
3053;DHT22;1536;51.098;6.414;2022-08-03T00:43:51;21.70;99.90
3053;DHT22;1536;51.098;6.414;2022-08-03T00:46:18;21.60;99.90
3053;DHT22;1536;51.098;6.414;2022-08-03T00:48:46;21.60;99.90
3053;DHT22;1536;51.098;6.414;2022-08-03T00:51:13;21.60;99.90
3053;DHT22;1536;51.098;6.414;2022-08-03T00:53:40;21.50;99.90
3053;DHT22;1536;51.098;6.414;2022-08-03T00:56:08;21.50;99.90
3053;DHT22;1536;51.098;6.414;2022-08-03T00:58:38;21.50;99.90
3053;DHT22;1536;51.098;6.414;2022-08-03T01:01:04;21.40;99.90
3053;DHT22;1536;51.098;6.414;2022-08-03T01:03:31;21.40;99.90
3053;DHT22;1536;51.098;6.414;2022-08-03T01:06:06;21.40;99.90
3053;DHT22;1536;51.098;6.414;2022-08-03T01:08:42;21.40;99.90
3053;DHT22;1536;51.098;6.414;2022-08-03T01:11:18;21.30;99.90
3053;DHT22;1536;51.098;6.414;2022-08-03T01:13:54;21.30;99.90
3053;DHT22;1536;51.098;6.414;2022-08-03T01:16:27;21.30;99.90
3053;DHT22;1536;51.098;6.414;2022-08-03T01:19:01;21.30;99.90
3053;DHT22;1536;51.098;6.414;2022-08-03T01:21:39;21.20;99.90
3053;DHT22;1536;51.098;6.414;2022-08-03T01:24:24;21.20;99.90
3053;DHT22;1536;51.098;6.414;2022-08-03T01:27:08;21.10;99.90
3053;DHT22;1536;51.098;6.414;2022-08-03T01:30:07;21.10;99.90
3053;DHT22;1536;51.098;6.414;2022-08-03T01:32:38;21.10;99.90
3053;DHT22;1536;51.098;6.414;2022-08-03T01:35:09;21.10;99.90
3053;DHT22;1536;51.098;6.414;2022-08-03T01:37:40;21.00;99.90
3053;DHT22;1536;51.098;6.414;2022-08-03T01:40:10;21.00;99.90
3053;DHT22;1536;51.098;6.414;2022-08-03T01:42:40;21.00;99.90
3053;DHT22;1536;51.098;6.414;2022-08-03T01:45:11;21.10;99.90
3053;DHT22;1536;51.098;6.414;2022-08-03T01:47:40;21.10;99.90
3053;DHT22;1536;51.098;6.414;2022-08-03T01:50:08;21.20;99.90
3053;DHT22;1536;51.098;6.414;2022-08-03T01:52:37;21.20;99.90
3053;DHT22;1536;51.098;6.414;2022-08-03T01:55:06;21.10;99.90
3053;DHT22;1536;51.098;6.414;2022-08-03T01:57:34;21.10;99.90
3053;DHT22;1536;51.098;6.414;2022-08-03T02:00:04;21.10;99.90
3053;DHT22;1536;51.098;6.414;2022-08-03T02:02:33;21.10;99.90
3053;DHT22;1536;51.098;6.414;2022-08-03T02:05:00;21.10;99.90
3053;DHT22;1536;51.098;6.414;2022-08-03T02:07:29;21.10;99.90
3053;DHT22;1536;51.098;6.414;2022-08-03T02:09:58;21.20;99.90
3053;DHT22;1536;51.098;6.414;2022-08-03T02:12:28;21.20;99.90
3053;DHT22;1536;51.098;6.414;2022-08-03T02:14:56;21.20;99.90
3053;DHT22;1536;51.098;6.414;2022-08-03T02:17:24;21.20;99.90
3053;DHT22;1536;51.098;6.414;2022-08-03T02:19:53;21.30;99.90
3053;DHT22;1536;51.098;6.414;2022-08-03T02:22:22;21.20;99.90
3053;DHT22;1536;51.098;6.414;2022-08-03T02:24:49;21.20;99.90
3053;DHT22;1536;51.098;6.414;2022-08-03T02:27:19;21.20;99.90
3053;DHT22;1536;51.098;6.414;2022-08-03T02:29:52;21.20;99.90
3053;DHT22;1536;51.098;6.414;2022-08-03T02:32:23;21.20;99.90
3053;DHT22;1536;51.098;6.414;2022-08-03T02:34:55;21.20;99.90
3053;DHT22;1536;51.098;6.414;2022-08-03T02:37:26;21.20;99.90
3053;DHT22;1536;51.098;6.414;2022-08-03T02:39:57;21.10;99.90
3053;DHT22;1536;51.098;6.414;2022-08-03T02:42:25;21.10;99.90
3053;DHT22;1536;51.098;6.414;2022-08-03T02:44:56;21.10;99.90
3053;DHT22;1536;51.098;6.414;2022-08-03T02:47:26;21.00;99.90
3053;DHT22;1536;51.098;6.414;2022-08-03T02:49:55;21.00;99.90
3053;DHT22;1536;51.098;6.414;2022-08-03T02:52:25;21.00;99.90
3053;DHT22;1536;51.098;6.414;2022-08-03T02:54:55;21.10;99.90
3053;DHT22;1536;51.098;6.414;2022-08-03T02:57:24;21.10;99.90
3053;DHT22;1536;51.098;6.414;2022-08-03T02:59:52;21.00;99.90
3053;DHT22;1536;51.098;6.414;2022-08-03T03:02:21;21.00;99.90
3053;DHT22;1536;51.098;6.414;2022-08-03T03:04:50;21.00;99.90
3053;DHT22;1536;51.098;6.414;2022-08-03T03:07:19;21.00;99.90
3053;DHT22;1536;51.098;6.414;2022-08-03T03:09:46;21.00;99.90
3053;DHT22;1536;51.098;6.414;2022-08-03T03:12:13;20.90;99.90
3053;DHT22;1536;51.098;6.414;2022-08-03T03:14:41;20.90;99.90
3053;DHT22;1536;51.098;6.414;2022-08-03T03:17:09;20.90;99.90
3053;DHT22;1536;51.098;6.414;2022-08-03T03:19:38;20.80;99.90
3053;DHT22;1536;51.098;6.414;2022-08-03T03:22:06;20.80;99.90
3053;DHT22;1536;51.098;6.414;2022-08-03T03:24:37;20.80;99.90
3053;DHT22;1536;51.098;6.414;2022-08-03T03:27:05;20.70;99.90
3053;DHT22;1536;51.098;6.414;2022-08-03T03:29:32;20.80;99.90
3053;DHT22;1536;51.098;6.414;2022-08-03T03:32:00;20.80;99.90
3053;DHT22;1536;51.098;6.414;2022-08-03T03:34:28;20.70;99.90
3053;DHT22;1536;51.098;6.414;2022-08-03T03:36:55;20.70;99.90
3053;DHT22;1536;51.098;6.414;2022-08-03T03:39:22;20.70;99.90
3053;DHT22;1536;51.098;6.414;2022-08-03T03:41:50;20.70;99.90
3053;DHT22;1536;51.098;6.414;2022-08-03T03:44:17;20.70;99.90
3053;DHT22;1536;51.098;6.414;2022-08-03T03:46:44;20.70;99.90
3053;DHT22;1536;51.098;6.414;2022-08-03T03:49:11;20.70;99.90
3053;DHT22;1536;51.098;6.414;2022-08-03T03:51:38;20.70;99.90
3053;DHT22;1536;51.098;6.414;2022-08-03T03:54:05;20.60;99.90
3053;DHT22;1536;51.098;6.414;2022-08-03T03:56:32;20.60;99.90
3053;DHT22;1536;51.098;6.414;2022-08-03T03:59:00;20.60;99.90
3053;DHT22;1536;51.098;6.414;2022-08-03T04:01:27;20.50;99.90
3053;DHT22;1536;51.098;6.414;2022-08-03T04:03:54;20.50;99.90
3053;DHT22;1536;51.098;6.414;2022-08-03T04:06:21;20.40;99.90
3053;DHT22;1536;51.098;6.414;2022-08-03T04:09:06;20.40;99.90
3053;DHT22;1536;51.098;6.414;2022-08-03T04:11:53;20.40;99.90
3053;DHT22;1536;51.098;6.414;2022-08-03T04:14:24;20.30;99.90
3053;DHT22;1536;51.098;6.414;2022-08-03T04:16:55;20.30;99.90
3053;DHT22;1536;51.098;6.414;2022-08-03T04:19:26;20.20;99.90
3053;DHT22;1536;51.098;6.414;2022-08-03T04:21:58;20.20;99.90
3053;DHT22;1536;51.098;6.414;2022-08-03T04:24:31;20.20;99.90
3053;DHT22;1536;51.098;6.414;2022-08-03T04:27:00;20.20;99.90
3053;DHT22;1536;51.098;6.414;2022-08-03T04:29:32;20.10;99.90
3053;DHT22;1536;51.098;6.414;2022-08-03T04:32:00;20.10;99.90
3053;DHT22;1536;51.098;6.414;2022-08-03T04:34:27;20.10;99.90
3053;DHT22;1536;51.098;6.414;2022-08-03T04:36:59;20.10;99.90
3053;DHT22;1536;51.098;6.414;2022-08-03T04:39:28;20.10;99.90
3053;DHT22;1536;51.098;6.414;2022-08-03T04:41:59;20.10;99.90
3053;DHT22;1536;51.098;6.414;2022-08-03T04:44:28;20.10;99.90
3053;DHT22;1536;51.098;6.414;2022-08-03T04:46:57;20.10;99.90
3053;DHT22;1536;51.098;6.414;2022-08-03T04:49:25;20.10;99.90
3053;DHT22;1536;51.098;6.414;2022-08-03T04:51:52;20.10;99.90
3053;DHT22;1536;51.098;6.414;2022-08-03T04:54:19;20.10;99.90
3053;DHT22;1536;51.098;6.414;2022-08-03T04:56:46;20.10;99.90
3053;DHT22;1536;51.098;6.414;2022-08-03T04:59:13;20.20;99.90
3053;DHT22;1536;51.098;6.414;2022-08-03T05:01:43;20.10;99.90
3053;DHT22;1536;51.098;6.414;2022-08-03T05:04:10;20.10;99.90
3053;DHT22;1536;51.098;6.414;2022-08-03T05:06:37;20.10;99.90
3053;DHT22;1536;51.098;6.414;2022-08-03T05:09:03;20.10;99.90
3053;DHT22;1536;51.098;6.414;2022-08-03T05:11:30;20.10;99.90
3053;DHT22;1536;51.098;6.414;2022-08-03T05:13:57;20.10;99.90
3053;DHT22;1536;51.098;6.414;2022-08-03T05:16:24;20.20;99.90
3053;DHT22;1536;51.098;6.414;2022-08-03T05:18:52;20.20;99.90
3053;DHT22;1536;51.098;6.414;2022-08-03T05:21:19;20.20;99.90
3053;DHT22;1536;51.098;6.414;2022-08-03T05:23:46;20.20;99.90
3053;DHT22;1536;51.098;6.414;2022-08-03T05:26:13;20.30;99.90
3053;DHT22;1536;51.098;6.414;2022-08-03T05:28:41;20.30;99.90
3053;DHT22;1536;51.098;6.414;2022-08-03T05:31:07;20.40;99.90
3053;DHT22;1536;51.098;6.414;2022-08-03T05:33:34;20.50;99.90
3053;DHT22;1536;51.098;6.414;2022-08-03T05:36:03;20.60;99.90
3053;DHT22;1536;51.098;6.414;2022-08-03T05:38:31;20.70;99.90
3053;DHT22;1536;51.098;6.414;2022-08-03T05:40:57;20.80;99.90
3053;DHT22;1536;51.098;6.414;2022-08-03T05:43:24;20.90;99.90
3053;DHT22;1536;51.098;6.414;2022-08-03T05:45:51;21.00;99.90
3053;DHT22;1536;51.098;6.414;2022-08-03T05:48:18;21.10;99.90
3053;DHT22;1536;51.098;6.414;2022-08-03T05:50:44;21.10;99.90
3053;DHT22;1536;51.098;6.414;2022-08-03T05:53:13;21.20;99.90
3053;DHT22;1536;51.098;6.414;2022-08-03T05:55:39;21.30;99.90
3053;DHT22;1536;51.098;6.414;2022-08-03T05:58:06;21.40;99.90
3053;DHT22;1536;51.098;6.414;2022-08-03T06:00:33;21.50;99.90
3053;DHT22;1536;51.098;6.414;2022-08-03T06:03:00;21.70;99.90
3053;DHT22;1536;51.098;6.414;2022-08-03T06:05:27;21.80;99.90
3053;DHT22;1536;51.098;6.414;2022-08-03T06:07:54;21.90;99.90
3053;DHT22;1536;51.098;6.414;2022-08-03T06:10:22;21.90;99.90
3053;DHT22;1536;51.098;6.414;2022-08-03T06:12:48;22.10;99.90
3053;DHT22;1536;51.098;6.414;2022-08-03T06:15:16;22.10;99.90
3053;DHT22;1536;51.098;6.414;2022-08-03T06:17:45;22.20;99.90
3053;DHT22;1536;51.098;6.414;2022-08-03T06:20:12;22.30;99.90
3053;DHT22;1536;51.098;6.414;2022-08-03T06:22:39;22.40;99.90
3053;DHT22;1536;51.098;6.414;2022-08-03T06:25:07;22.50;99.90
3053;DHT22;1536;51.098;6.414;2022-08-03T06:27:35;22.50;99.90
3053;DHT22;1536;51.098;6.414;2022-08-03T06:30:06;22.60;99.90
3053;DHT22;1536;51.098;6.414;2022-08-03T06:32:35;22.70;99.90
3053;DHT22;1536;51.098;6.414;2022-08-03T06:35:02;22.70;99.90
3053;DHT22;1536;51.098;6.414;2022-08-03T06:37:29;22.90;99.90
3053;DHT22;1536;51.098;6.414;2022-08-03T06:39:55;22.90;99.90
3053;DHT22;1536;51.098;6.414;2022-08-03T06:42:22;23.00;99.90
3053;DHT22;1536;51.098;6.414;2022-08-03T06:44:51;23.10;99.90
3053;DHT22;1536;51.098;6.414;2022-08-03T06:47:18;23.20;99.90
3053;DHT22;1536;51.098;6.414;2022-08-03T06:49:45;23.30;99.90
3053;DHT22;1536;51.098;6.414;2022-08-03T06:52:12;23.40;99.90
3053;DHT22;1536;51.098;6.414;2022-08-03T06:54:39;23.40;99.90
3053;DHT22;1536;51.098;6.414;2022-08-03T06:57:05;23.50;99.90
3053;DHT22;1536;51.098;6.414;2022-08-03T06:59:34;23.60;99.90
3053;DHT22;1536;51.098;6.414;2022-08-03T07:02:02;23.60;99.90
3053;DHT22;1536;51.098;6.414;2022-08-03T07:04:29;23.70;99.90
3053;DHT22;1536;51.098;6.414;2022-08-03T07:06:56;23.80;99.90
3053;DHT22;1536;51.098;6.414;2022-08-03T07:09:23;23.80;99.90
3053;DHT22;1536;51.098;6.414;2022-08-03T07:11:51;23.90;99.90
3053;DHT22;1536;51.098;6.414;2022-08-03T07:14:18;24.00;99.90
3053;DHT22;1536;51.098;6.414;2022-08-03T07:16:45;24.00;99.90
3053;DHT22;1536;51.098;6.414;2022-08-03T07:19:13;24.10;99.90
3053;DHT22;1536;51.098;6.414;2022-08-03T07:21:39;24.10;99.90
3053;DHT22;1536;51.098;6.414;2022-08-03T07:24:10;24.20;99.90
3053;DHT22;1536;51.098;6.414;2022-08-03T07:26:37;24.20;99.90
3053;DHT22;1536;51.098;6.414;2022-08-03T07:29:04;24.30;99.90
3053;DHT22;1536;51.098;6.414;2022-08-03T07:31:31;24.40;99.90
3053;DHT22;1536;51.098;6.414;2022-08-03T07:33:57;24.40;99.90
3053;DHT22;1536;51.098;6.414;2022-08-03T07:36:26;24.50;99.90
3053;DHT22;1536;51.098;6.414;2022-08-03T07:38:52;24.50;99.90
3053;DHT22;1536;51.098;6.414;2022-08-03T07:41:19;24.60;99.90
3053;DHT22;1536;51.098;6.414;2022-08-03T07:43:46;24.70;99.90
3053;DHT22;1536;51.098;6.414;2022-08-03T07:46:13;24.80;99.90
3053;DHT22;1536;51.098;6.414;2022-08-03T07:48:40;24.80;99.90
3053;DHT22;1536;51.098;6.414;2022-08-03T07:51:07;24.90;99.90
3053;DHT22;1536;51.098;6.414;2022-08-03T07:53:35;25.00;99.90
3053;DHT22;1536;51.098;6.414;2022-08-03T07:56:02;25.20;99.90
3053;DHT22;1536;51.098;6.414;2022-08-03T07:58:29;25.20;99.90
3053;DHT22;1536;51.098;6.414;2022-08-03T08:00:55;25.30;99.90
3053;DHT22;1536;51.098;6.414;2022-08-03T08:03:22;25.50;99.90
3053;DHT22;1536;51.098;6.414;2022-08-03T08:05:51;25.50;99.90
3053;DHT22;1536;51.098;6.414;2022-08-03T08:08:18;25.60;99.90
3053;DHT22;1536;51.098;6.414;2022-08-03T08:10:46;25.80;99.90
3053;DHT22;1536;51.098;6.414;2022-08-03T08:13:13;25.90;99.90
3053;DHT22;1536;51.098;6.414;2022-08-03T08:15:40;26.00;99.90
3053;DHT22;1536;51.098;6.414;2022-08-03T08:18:06;26.20;99.90
3053;DHT22;1536;51.098;6.414;2022-08-03T08:20:34;26.30;99.90
3053;DHT22;1536;51.098;6.414;2022-08-03T08:23:04;26.50;99.90
3053;DHT22;1536;51.098;6.414;2022-08-03T08:25:32;26.60;99.90
3053;DHT22;1536;51.098;6.414;2022-08-03T08:28:01;26.70;99.90
3053;DHT22;1536;51.098;6.414;2022-08-03T08:30:30;26.90;99.90
3053;DHT22;1536;51.098;6.414;2022-08-03T08:32:58;27.00;99.90
3053;DHT22;1536;51.098;6.414;2022-08-03T08:35:25;27.10;99.90
3053;DHT22;1536;51.098;6.414;2022-08-03T08:37:51;27.20;99.90
3053;DHT22;1536;51.098;6.414;2022-08-03T08:40:21;27.40;99.90
3053;DHT22;1536;51.098;6.414;2022-08-03T08:42:48;27.50;99.90
3053;DHT22;1536;51.098;6.414;2022-08-03T08:45:16;27.60;99.90
3053;DHT22;1536;51.098;6.414;2022-08-03T08:47:45;27.70;99.90
3053;DHT22;1536;51.098;6.414;2022-08-03T08:50:12;27.80;99.90
3053;DHT22;1536;51.098;6.414;2022-08-03T08:52:40;27.90;99.90
3053;DHT22;1536;51.098;6.414;2022-08-03T08:55:09;28.00;99.90
3053;DHT22;1536;51.098;6.414;2022-08-03T08:57:38;28.10;99.90
3053;DHT22;1536;51.098;6.414;2022-08-03T09:00:10;28.20;99.90
3053;DHT22;1536;51.098;6.414;2022-08-03T09:02:40;28.30;99.90
3053;DHT22;1536;51.098;6.414;2022-08-03T09:05:09;28.40;99.80
3053;DHT22;1536;51.098;6.414;2022-08-03T09:07:37;28.50;99.40
3053;DHT22;1536;51.098;6.414;2022-08-03T09:10:05;28.60;98.90
3053;DHT22;1536;51.098;6.414;2022-08-03T09:12:36;28.60;98.40
3053;DHT22;1536;51.098;6.414;2022-08-03T09:15:16;28.70;98.20
3053;DHT22;1536;51.098;6.414;2022-08-03T09:17:45;28.80;97.50
3053;DHT22;1536;51.098;6.414;2022-08-03T09:20:12;28.80;97.60
3053;DHT22;1536;51.098;6.414;2022-08-03T09:22:51;28.90;97.60
3053;DHT22;1536;51.098;6.414;2022-08-03T09:25:19;28.90;96.90
3053;DHT22;1536;51.098;6.414;2022-08-03T09:27:51;29.10;96.70
3053;DHT22;1536;51.098;6.414;2022-08-03T09:30:18;29.10;96.40
3053;DHT22;1536;51.098;6.414;2022-08-03T09:32:47;29.20;96.10
3053;DHT22;1536;51.098;6.414;2022-08-03T09:35:13;29.30;96.10
3053;DHT22;1536;51.098;6.414;2022-08-03T09:37:40;29.40;95.20
3053;DHT22;1536;51.098;6.414;2022-08-03T09:40:08;29.50;95.00
3053;DHT22;1536;51.098;6.414;2022-08-03T09:42:34;29.60;94.90
3053;DHT22;1536;51.098;6.414;2022-08-03T09:45:03;29.60;95.10
3053;DHT22;1536;51.098;6.414;2022-08-03T09:47:31;29.70;95.30
3053;DHT22;1536;51.098;6.414;2022-08-03T09:50:04;29.80;94.40
3053;DHT22;1536;51.098;6.414;2022-08-03T09:52:32;29.80;94.20
3053;DHT22;1536;51.098;6.414;2022-08-03T09:55:00;29.90;93.80
3053;DHT22;1536;51.098;6.414;2022-08-03T09:57:27;29.90;93.60
3053;DHT22;1536;51.098;6.414;2022-08-03T10:00:06;30.00;93.70
3053;DHT22;1536;51.098;6.414;2022-08-03T10:02:35;30.10;93.90
3053;DHT22;1536;51.098;6.414;2022-08-03T10:05:05;30.20;93.70
3053;DHT22;1536;51.098;6.414;2022-08-03T10:07:41;30.20;93.60
3053;DHT22;1536;51.098;6.414;2022-08-03T10:10:08;30.30;93.60
3053;DHT22;1536;51.098;6.414;2022-08-03T10:12:36;30.40;93.20
3053;DHT22;1536;51.098;6.414;2022-08-03T10:15:03;30.40;93.20
3053;DHT22;1536;51.098;6.414;2022-08-03T10:17:30;30.40;92.90
3053;DHT22;1536;51.098;6.414;2022-08-03T10:19:57;30.40;91.70
3053;DHT22;1536;51.098;6.414;2022-08-03T10:22:27;30.50;91.80
3053;DHT22;1536;51.098;6.414;2022-08-03T10:24:58;30.50;91.90
3053;DHT22;1536;51.098;6.414;2022-08-03T10:27:26;30.50;91.90
3053;DHT22;1536;51.098;6.414;2022-08-03T10:29:59;30.60;91.60
3053;DHT22;1536;51.098;6.414;2022-08-03T10:32:29;30.60;91.40
3053;DHT22;1536;51.098;6.414;2022-08-03T10:35:02;30.70;91.50
3053;DHT22;1536;51.098;6.414;2022-08-03T10:37:33;30.70;91.60
3053;DHT22;1536;51.098;6.414;2022-08-03T10:40:04;30.80;91.50
3053;DHT22;1536;51.098;6.414;2022-08-03T10:42:32;30.80;91.20
3053;DHT22;1536;51.098;6.414;2022-08-03T10:45:04;30.90;91.20
3053;DHT22;1536;51.098;6.414;2022-08-03T10:47:32;31.00;91.00
3053;DHT22;1536;51.098;6.414;2022-08-03T10:50:00;31.00;90.50
3053;DHT22;1536;51.098;6.414;2022-08-03T10:52:27;31.10;90.20
3053;DHT22;1536;51.098;6.414;2022-08-03T10:54:55;31.10;90.10
3053;DHT22;1536;51.098;6.414;2022-08-03T10:57:44;31.10;89.90
3053;DHT22;1536;51.098;6.414;2022-08-03T11:00:12;31.10;88.90
3053;DHT22;1536;51.098;6.414;2022-08-03T11:03:05;31.20;90.00
3053;DHT22;1536;51.098;6.414;2022-08-03T11:05:40;31.20;90.00
3053;DHT22;1536;51.098;6.414;2022-08-03T11:08:25;31.30;90.00
3053;DHT22;1536;51.098;6.414;2022-08-03T11:10:58;31.30;90.00
3053;DHT22;1536;51.098;6.414;2022-08-03T11:13:27;31.40;90.00
3053;DHT22;1536;51.098;6.414;2022-08-03T11:15:58;31.40;88.50
3053;DHT22;1536;51.098;6.414;2022-08-03T11:18:25;31.50;89.10
3053;DHT22;1536;51.098;6.414;2022-08-03T11:20:53;31.50;89.80
3053;DHT22;1536;51.098;6.414;2022-08-03T11:23:42;31.50;89.30
3053;DHT22;1536;51.098;6.414;2022-08-03T11:26:12;31.50;88.90
3053;DHT22;1536;51.098;6.414;2022-08-03T11:28:40;31.50;88.00
3053;DHT22;1536;51.098;6.414;2022-08-03T11:31:42;31.60;88.70
3053;DHT22;1536;51.098;6.414;2022-08-03T11:34:11;31.60;88.80
3053;DHT22;1536;51.098;6.414;2022-08-03T11:39:52;31.70;87.80
3053;DHT22;1536;51.098;6.414;2022-08-03T11:42:39;31.80;88.00
3053;DHT22;1536;51.098;6.414;2022-08-03T11:45:08;31.80;88.00
3053;DHT22;1536;51.098;6.414;2022-08-03T11:47:38;31.80;88.40
3053;DHT22;1536;51.098;6.414;2022-08-03T11:50:06;31.80;88.20
3053;DHT22;1536;51.098;6.414;2022-08-03T11:52:36;31.90;87.10
3053;DHT22;1536;51.098;6.414;2022-08-03T11:55:08;31.90;86.40
3053;DHT22;1536;51.098;6.414;2022-08-03T11:57:36;31.90;85.50
3053;DHT22;1536;51.098;6.414;2022-08-03T12:00:21;32.00;86.10
3053;DHT22;1536;51.098;6.414;2022-08-03T12:02:56;32.00;84.90
3053;DHT22;1536;51.098;6.414;2022-08-03T12:05:33;32.10;84.90
3053;DHT22;1536;51.098;6.414;2022-08-03T12:08:00;32.00;84.20
3053;DHT22;1536;51.098;6.414;2022-08-03T12:10:27;32.20;84.30
3053;DHT22;1536;51.098;6.414;2022-08-03T12:12:55;32.20;84.90
3053;DHT22;1536;51.098;6.414;2022-08-03T12:15:26;32.20;84.00
3053;DHT22;1536;51.098;6.414;2022-08-03T12:17:53;32.20;83.30
3053;DHT22;1536;51.098;6.414;2022-08-03T12:20:21;32.20;83.60
3053;DHT22;1536;51.098;6.414;2022-08-03T12:22:48;32.30;84.00
3053;DHT22;1536;51.098;6.414;2022-08-03T12:25:21;32.30;83.90
3053;DHT22;1536;51.098;6.414;2022-08-03T12:27:48;32.30;84.70
3053;DHT22;1536;51.098;6.414;2022-08-03T12:30:15;32.30;84.40
3053;DHT22;1536;51.098;6.414;2022-08-03T12:32:43;32.30;83.90
3053;DHT22;1536;51.098;6.414;2022-08-03T12:35:21;32.30;82.60
3053;DHT22;1536;51.098;6.414;2022-08-03T12:37:48;32.30;82.80
3053;DHT22;1536;51.098;6.414;2022-08-03T12:40:23;32.30;82.70
3053;DHT22;1536;51.098;6.414;2022-08-03T12:42:51;32.40;81.10
3053;DHT22;1536;51.098;6.414;2022-08-03T12:45:19;32.30;81.00
3053;DHT22;1536;51.098;6.414;2022-08-03T12:47:52;32.40;80.80
3053;DHT22;1536;51.098;6.414;2022-08-03T12:50:26;32.40;80.10
3053;DHT22;1536;51.098;6.414;2022-08-03T12:52:54;32.40;79.40
3053;DHT22;1536;51.098;6.414;2022-08-03T12:55:23;32.50;80.20
3053;DHT22;1536;51.098;6.414;2022-08-03T12:57:58;32.50;79.70
3053;DHT22;1536;51.098;6.414;2022-08-03T13:00:24;32.60;79.10
3053;DHT22;1536;51.098;6.414;2022-08-03T13:03:00;32.50;78.00
3053;DHT22;1536;51.098;6.414;2022-08-03T13:05:28;32.60;77.40
3053;DHT22;1536;51.098;6.414;2022-08-03T13:07:56;32.60;77.90
3053;DHT22;1536;51.098;6.414;2022-08-03T13:10:30;32.70;77.80
3053;DHT22;1536;51.098;6.414;2022-08-03T13:12:58;32.70;77.80
3053;DHT22;1536;51.098;6.414;2022-08-03T13:15:28;32.70;78.00
3053;DHT22;1536;51.098;6.414;2022-08-03T13:17:56;32.70;78.20
3053;DHT22;1536;51.098;6.414;2022-08-03T13:20:24;32.80;76.60
3053;DHT22;1536;51.098;6.414;2022-08-03T13:22:51;32.90;74.50
3053;DHT22;1536;51.098;6.414;2022-08-03T13:25:18;32.90;74.50
3053;DHT22;1536;51.098;6.414;2022-08-03T13:27:45;33.00;74.20
3053;DHT22;1536;51.098;6.414;2022-08-03T13:30:12;33.00;74.40
3053;DHT22;1536;51.098;6.414;2022-08-03T13:32:40;33.10;74.90
3053;DHT22;1536;51.098;6.414;2022-08-03T13:35:08;33.10;74.10
3053;DHT22;1536;51.098;6.414;2022-08-03T13:37:36;33.20;72.80
3053;DHT22;1536;51.098;6.414;2022-08-03T13:40:05;33.20;72.90
3053;DHT22;1536;51.098;6.414;2022-08-03T13:42:34;33.30;71.50
3053;DHT22;1536;51.098;6.414;2022-08-03T13:47:43;33.30;71.80
3053;DHT22;1536;51.098;6.414;2022-08-03T13:50:10;33.40;70.60
3053;DHT22;1536;51.098;6.414;2022-08-03T13:52:38;33.50;70.30
3053;DHT22;1536;51.098;6.414;2022-08-03T13:55:06;33.60;70.00
3053;DHT22;1536;51.098;6.414;2022-08-03T13:57:34;33.70;69.80
3053;DHT22;1536;51.098;6.414;2022-08-03T14:00:01;33.70;69.20
3053;DHT22;1536;51.098;6.414;2022-08-03T14:02:27;33.80;69.30
3053;DHT22;1536;51.098;6.414;2022-08-03T14:04:54;33.80;69.20
3053;DHT22;1536;51.098;6.414;2022-08-03T14:07:21;33.80;68.80
3053;DHT22;1536;51.098;6.414;2022-08-03T14:09:49;33.80;68.80
3053;DHT22;1536;51.098;6.414;2022-08-03T14:12:16;33.80;68.60
3053;DHT22;1536;51.098;6.414;2022-08-03T14:14:43;33.80;67.70
3053;DHT22;1536;51.098;6.414;2022-08-03T14:17:10;33.80;67.80
3053;DHT22;1536;51.098;6.414;2022-08-03T14:19:36;33.90;68.30
3053;DHT22;1536;51.098;6.414;2022-08-03T14:22:03;33.90;68.80
3053;DHT22;1536;51.098;6.414;2022-08-03T14:24:30;34.00;69.10
3053;DHT22;1536;51.098;6.414;2022-08-03T14:26:58;34.00;69.20
3053;DHT22;1536;51.098;6.414;2022-08-03T14:29:25;34.10;68.70
3053;DHT22;1536;51.098;6.414;2022-08-03T14:31:51;34.10;68.10
3053;DHT22;1536;51.098;6.414;2022-08-03T14:34:18;34.10;67.60
3053;DHT22;1536;51.098;6.414;2022-08-03T14:36:45;34.20;67.30
3053;DHT22;1536;51.098;6.414;2022-08-03T14:39:12;34.20;67.20
3053;DHT22;1536;51.098;6.414;2022-08-03T14:41:39;34.30;67.40
3053;DHT22;1536;51.098;6.414;2022-08-03T14:44:07;34.30;66.90
3053;DHT22;1536;51.098;6.414;2022-08-03T14:46:34;34.30;66.30
3053;DHT22;1536;51.098;6.414;2022-08-03T14:49:15;34.20;63.80
3053;DHT22;1536;51.098;6.414;2022-08-03T14:51:42;34.10;65.10
3053;DHT22;1536;51.098;6.414;2022-08-03T14:54:09;34.00;64.70
3053;DHT22;1536;51.098;6.414;2022-08-03T14:56:36;33.90;65.40
3053;DHT22;1536;51.098;6.414;2022-08-03T14:59:02;33.80;64.90
3053;DHT22;1536;51.098;6.414;2022-08-03T15:01:31;33.60;65.40
3053;DHT22;1536;51.098;6.414;2022-08-03T15:03:57;33.50;66.90
3053;DHT22;1536;51.098;6.414;2022-08-03T15:06:25;33.40;67.80
3053;DHT22;1536;51.098;6.414;2022-08-03T15:08:51;33.40;69.50
3053;DHT22;1536;51.098;6.414;2022-08-03T15:11:18;33.30;69.20
3053;DHT22;1536;51.098;6.414;2022-08-03T15:13:45;33.30;69.40
3053;DHT22;1536;51.098;6.414;2022-08-03T15:16:12;33.30;69.80
3053;DHT22;1536;51.098;6.414;2022-08-03T15:18:40;33.30;70.00
3053;DHT22;1536;51.098;6.414;2022-08-03T15:21:07;33.30;68.70
3053;DHT22;1536;51.098;6.414;2022-08-03T15:23:33;33.20;68.30
3053;DHT22;1536;51.098;6.414;2022-08-03T15:26:00;33.20;69.20
3053;DHT22;1536;51.098;6.414;2022-08-03T15:28:27;33.20;70.10
3053;DHT22;1536;51.098;6.414;2022-08-03T15:30:54;33.20;70.10
3053;DHT22;1536;51.098;6.414;2022-08-03T15:33:21;33.30;70.30
3053;DHT22;1536;51.098;6.414;2022-08-03T15:35:49;33.30;69.50
3053;DHT22;1536;51.098;6.414;2022-08-03T15:38:17;33.40;68.50
3053;DHT22;1536;51.098;6.414;2022-08-03T15:40:44;33.50;68.80
3053;DHT22;1536;51.098;6.414;2022-08-03T15:43:11;33.60;68.20
3053;DHT22;1536;51.098;6.414;2022-08-03T15:45:38;33.60;68.50
3053;DHT22;1536;51.098;6.414;2022-08-03T15:48:05;33.60;66.20
3053;DHT22;1536;51.098;6.414;2022-08-03T15:50:32;33.50;66.10
3053;DHT22;1536;51.098;6.414;2022-08-03T15:53:00;33.40;66.30
3053;DHT22;1536;51.098;6.414;2022-08-03T15:55:28;33.50;67.00
3053;DHT22;1536;51.098;6.414;2022-08-03T15:57:55;33.40;65.70
3053;DHT22;1536;51.098;6.414;2022-08-03T16:00:22;33.30;65.90
3053;DHT22;1536;51.098;6.414;2022-08-03T16:02:49;33.30;67.10
3053;DHT22;1536;51.098;6.414;2022-08-03T16:05:16;33.30;67.70
3053;DHT22;1536;51.098;6.414;2022-08-03T16:07:43;33.20;67.80
3053;DHT22;1536;51.098;6.414;2022-08-03T16:10:13;33.20;69.20
3053;DHT22;1536;51.098;6.414;2022-08-03T16:12:40;33.10;68.10
3053;DHT22;1536;51.098;6.414;2022-08-03T16:15:09;33.00;67.50
3053;DHT22;1536;51.098;6.414;2022-08-03T16:17:36;32.80;67.50
3053;DHT22;1536;51.098;6.414;2022-08-03T16:20:04;32.60;68.40